Time;durP1;ratioP1;P1;durP2;ratioP2;P2;SDS_P1;SDS_P2;PMS_P1;PMS_P2;Temp;Humidity;BMP_temperature;BMP_pressure;BME280_temperature;BME280_humidity;BME280_pressure;Samples;Min_cycle;Max_cycle;Signal;HPM_P1;HPM_P2
2024/03/11 00:01:50;;;;;;;30.20;16.33;;;;;;;6.54;100.00;99561.78;5039050;28;21621;-83
2024/03/11 00:04:24;;;;;;;28.25;15.70;;;;;;;6.51;100.00;99554.22;5051257;28;20424;-83
2024/03/11 00:06:57;;;;;;;30.73;16.20;;;;;;;6.60;100.00;99557.94;5033416;28;20433;-84
2024/03/11 00:09:32;;;;;;;29.20;16.27;;;;;;;6.57;100.00;99547.69;5051578;28;20421;-82
2024/03/11 00:12:01;;;;;;;29.10;16.58;;;;;;;6.71;100.00;99555.97;5042651;28;20420;-84
2024/03/11 00:14:33;;;;;;;28.33;15.88;;;;;;;6.75;100.00;99559.72;5047366;28;20434;-84
2024/03/11 00:17:02;;;;;;;27.80;15.50;;;;;;;6.72;100.00;99557.59;5049085;28;20465;-84
2024/03/11 00:19:30;;;;;;;28.45;15.68;;;;;;;6.73;100.00;99559.22;5045298;28;20444;-84
2024/03/11 00:22:04;;;;;;;28.48;16.30;;;;;;;6.51;100.00;99565.84;5052679;28;20425;-84
2024/03/11 00:24:37;;;;;;;27.85;15.90;;;;;;;6.58;100.00;99569.03;5054025;28;20413;-84
2024/03/11 00:27:08;;;;;;;30.10;16.10;;;;;;;6.59;100.00;99567.16;5036373;28;20780;-84
2024/03/11 00:29:37;;;;;;;26.77;16.10;;;;;;;6.39;100.00;99576.97;5042583;28;20449;-83
2024/03/11 00:32:07;;;;;;;27.98;15.43;;;;;;;6.53;100.00;99577.19;5041433;28;20430;-84
2024/03/11 00:34:36;;;;;;;26.92;15.43;;;;;;;6.48;100.00;99571.81;5038439;28;20439;-83
2024/03/11 00:37:12;;;;;;;31.57;16.00;;;;;;;6.52;100.00;99577.44;5042759;28;20436;-84
2024/03/11 00:39:40;;;;;;;28.27;15.97;;;;;;;6.29;100.00;99574.34;5052276;28;21504;-83
2024/03/11 00:42:08;;;;;;;28.13;15.45;;;;;;;6.46;100.00;99571.28;5042235;28;20444;-83
2024/03/11 00:44:43;;;;;;;30.17;15.52;;;;;;;6.42;100.00;99579.16;5042401;28;20425;-84
2024/03/11 00:47:12;;;;;;;30.30;16.73;;;;;;;6.50;100.00;99580.44;5039819;28;20492;-83
2024/03/11 00:49:47;;;;;;;28.65;15.98;;;;;;;6.38;100.00;99572.69;5043968;28;20472;-82
2024/03/11 00:52:21;;;;;;;27.55;15.80;;;;;;;6.37;100.00;99573.75;5046311;28;20757;-83
2024/03/11 00:54:49;;;;;;;31.90;16.45;;;;;;;6.42;100.00;99572.91;5039830;28;20420;-83
2024/03/11 00:57:18;;;;;;;26.95;15.52;;;;;;;6.41;100.00;99572.13;5041542;28;20911;-83
2024/03/11 00:59:54;;;;;;;30.15;16.45;;;;;;;6.51;100.00;99568.53;5038772;28;20417;-84
2024/03/11 01:02:27;;;;;;;26.70;15.20;;;;;;;6.75;100.00;99570.53;5054722;28;20417;-84
2024/03/11 01:04:56;;;;;;;26.65;15.52;;;;;;;6.53;100.00;99565.56;5049394;28;20453;-83
2024/03/11 01:07:25;;;;;;;26.15;15.48;;;;;;;6.53;100.00;99571.78;5055319;28;20417;-84
2024/03/11 01:09:58;;;;;;;28.10;16.42;;;;;;;6.56;100.00;99570.41;5055059;28;20436;-84
2024/03/11 01:12:32;;;;;;;27.63;15.85;;;;;;;6.62;100.00;99563.88;5053718;28;20984;-84
2024/03/11 01:15:07;;;;;;;27.42;15.52;;;;;;;6.75;100.00;99559.72;5052633;28;20437;-84
2024/03/11 01:17:41;;;;;;;29.50;16.43;;;;;;;6.56;100.00;99563.13;5054807;28;21201;-84
2024/03/11 01:20:15;;;;;;;26.70;15.37;;;;;;;6.69;100.00;99571.69;5050936;28;20475;-83
2024/03/11 01:22:44;;;;;;;28.55;16.35;;;;;;;6.78;100.00;99568.09;5055201;28;20430;-85
2024/03/11 01:25:12;;;;;;;28.40;15.95;;;;;;;6.67;100.00;99563.84;5035420;28;20421;-85
2024/03/11 01:27:42;;;;;;;28.75;16.70;;;;;;;6.71;100.00;99564.91;5041793;28;20812;-83
2024/03/11 01:30:17;;;;;;;29.50;15.77;;;;;;;6.69;100.00;99567.06;5035748;28;21224;-84
2024/03/11 01:32:50;;;;;;;26.77;15.30;;;;;;;6.75;100.00;99571.38;5036569;28;20425;-85
2024/03/11 01:35:24;;;;;;;26.92;15.40;;;;;;;6.75;100.00;99571.38;5052601;28;20427;-85
2024/03/11 01:37:59;;;;;;;25.48;14.93;;;;;;;6.69;100.00;99563.56;5054319;28;20423;-84
2024/03/11 01:40:28;;;;;;;30.38;15.90;;;;;;;6.79;100.00;99558.06;5045484;28;20886;-84
2024/03/11 01:43:01;;;;;;;31.27;16.27;;;;;;;6.62;100.00;99566.59;5059150;28;20406;-83
2024/03/11 01:45:32;;;;;;;26.98;15.75;;;;;;;6.71;100.00;99567.63;5047585;28;20415;-84
2024/03/11 01:48:01;;;;;;;26.85;15.32;;;;;;;6.77;100.00;99565.69;5057020;28;20422;-84
2024/03/11 01:50:35;;;;;;;27.95;15.30;;;;;;;6.64;100.00;99559.81;5043942;28;20424;-83
2024/03/11 01:53:04;;;;;;;27.47;15.20;;;;;;;6.78;100.00;99560.00;5038486;28;20448;-83
2024/03/11 01:55:33;;;;;;;26.80;15.40;;;;;;;6.78;100.00;99561.88;5039818;28;20439;-85
2024/03/11 01:58:09;;;;;;;28.80;15.75;;;;;;;6.84;100.00;99554.53;5052135;28;20427;-84
2024/03/11 02:00:41;;;;;;;26.17;15.57;;;;;;;6.63;100.00;99546.59;5033670;28;20968;-82
2024/03/11 02:03:09;;;;;;;30.42;15.75;;;;;;;6.66;100.00;99539.78;5042426;28;20439;-84
2024/03/11 02:05:44;;;;;;;27.88;15.20;;;;;;;6.68;100.00;99543.81;5040939;28;20778;-84
2024/03/11 02:08:12;;;;;;;27.52;14.88;;;;;;;6.60;100.00;99542.53;5049212;28;20439;-83
2024/03/11 02:10:41;;;;;;;27.75;15.43;;;;;;;6.58;100.00;99536.59;5039126;28;20432;-83
2024/03/11 02:13:14;;;;;;;27.88;15.10;;;;;;;6.50;100.00;99536.41;5038219;28;20423;-83
2024/03/11 02:15:49;;;;;;;27.88;15.63;;;;;;;6.41;100.00;99542.41;5050533;28;20440;-83
2024/03/11 02:18:22;;;;;;;27.52;15.40;;;;;;;6.40;100.00;99526.47;5035215;28;20429;-83
2024/03/11 02:20:56;;;;;;;28.90;15.13;;;;;;;6.27;100.00;99530.56;5052036;28;20450;-84
2024/03/11 02:23:30;;;;;;;26.80;15.73;;;;;;;6.36;100.00;99530.81;5042932;28;20431;-83
2024/03/11 02:26:06;;;;;;;29.60;15.98;;;;;;;6.32;100.00;99522.44;5050746;28;20422;-83
2024/03/11 02:28:34;;;;;;;30.00;15.85;;;;;;;6.31;100.00;99520.81;5050552;28;20431;-84
2024/03/11 02:31:08;;;;;;;28.00;15.45;;;;;;;6.29;100.00;99512.19;5053769;28;20427;-84
2024/03/11 02:33:36;;;;;;;27.33;15.68;;;;;;;6.49;100.00;99513.97;5035188;28;20428;-83
2024/03/11 02:36:09;;;;;;;28.85;15.48;;;;;;;6.63;100.00;99506.03;5049342;28;20436;-84
2024/03/11 02:38:39;;;;;;;27.90;14.70;;;;;;;6.69;100.00;99504.88;5047832;28;20439;-84
2024/03/11 02:41:08;;;;;;;28.33;15.57;;;;;;;6.59;100.00;99515.78;5049976;28;20444;-83
2024/03/11 02:43:36;;;;;;;26.00;15.00;;;;;;;6.58;100.00;99508.75;5051629;28;20423;-84
2024/03/11 02:46:10;;;;;;;26.85;14.55;;;;;;;6.61;100.00;99516.31;5032208;28;20429;-84
2024/03/11 02:48:44;;;;;;;28.02;15.52;;;;;;;6.77;100.00;99509.69;5050803;28;20433;-82
2024/03/11 02:51:17;;;;;;;26.08;15.05;;;;;;;6.62;100.00;99512.53;5052154;28;20433;-84
2024/03/11 02:53:47;;;;;;;29.20;15.15;;;;;;;6.60;100.00;99507.41;5051772;28;20419;-84
2024/03/11 02:56:15;;;;;;;26.95;14.60;;;;;;;6.66;100.00;99504.63;5049588;28;22065;-84
2024/03/11 02:58:44;;;;;;;27.52;14.90;;;;;;;6.71;100.00;99508.13;5051086;28;20426;-83
2024/03/11 03:01:13;;;;;;;27.42;15.43;;;;;;;6.56;100.00;99503.66;5052657;28;20423;-84
2024/03/11 03:03:47;;;;;;;26.42;14.60;;;;;;;6.63;100.00;99500.63;5051136;28;20442;-83
2024/03/11 03:06:21;;;;;;;25.38;14.80;;;;;;;6.46;100.00;99509.94;5050857;28;20425;-83
2024/03/11 03:08:56;;;;;;;26.85;15.20;;;;;;;6.71;100.00;99515.41;5048918;28;20431;-82
2024/03/11 03:11:24;;;;;;;25.77;15.15;;;;;;;6.57;100.00;99512.56;5039125;28;20433;-83
2024/03/11 03:13:58;;;;;;;28.33;14.93;;;;;;;6.62;100.00;99507.13;5047972;28;20456;-84
2024/03/11 03:16:26;;;;;;;25.42;14.65;;;;;;;6.49;100.00;99513.16;5051879;28;20452;-84
2024/03/11 03:19:00;;;;;;;26.52;14.27;;;;;;;6.50;100.00;99514.78;5034113;28;20424;-83
2024/03/11 03:21:33;;;;;;;27.92;14.77;;;;;;;6.67;100.00;99512.50;5048106;28;20435;-84
2024/03/11 03:24:03;;;;;;;25.02;14.40;;;;;;;6.64;100.00;99513.03;5036831;28;20428;-83
2024/03/11 03:26:36;;;;;;;25.20;14.77;;;;;;;6.68;100.00;99508.66;5041218;28;21266;-84
2024/03/11 03:29:06;;;;;;;26.50;14.02;;;;;;;6.69;100.00;99514.91;5033942;28;20433;-83
2024/03/11 03:31:34;;;;;;;25.90;14.40;;;;;;;6.62;100.00;99523.34;5036248;28;20510;-82
2024/03/11 03:34:09;;;;;;;24.90;14.68;;;;;;;6.67;100.00;99514.38;5053628;28;20419;-83
2024/03/11 03:36:42;;;;;;;26.63;14.55;;;;;;;6.58;100.00;99525.78;5041129;28;20431;-84
2024/03/11 03:39:12;;;;;;;26.50;14.35;;;;;;;6.47;100.00;99522.34;5032349;28;20915;-84
2024/03/11 03:41:40;;;;;;;25.03;14.37;;;;;;;6.51;100.00;99513.69;5037837;28;20427;-84
2024/03/11 03:44:13;;;;;;;23.17;14.40;;;;;;;6.62;100.00;99513.31;5044880;28;20435;-83
2024/03/11 03:46:47;;;;;;;26.73;14.53;;;;;;;6.68;100.00;99516.78;5051579;28;20444;-84
2024/03/11 03:49:15;;;;;;;24.05;13.98;;;;;;;6.64;100.00;99513.03;5037789;28;20433;-83
2024/03/11 03:51:48;;;;;;;24.63;14.65;;;;;;;6.51;100.00;99511.78;5056339;28;20448;-82
2024/03/11 03:54:18;;;;;;;25.67;14.60;;;;;;;6.53;100.00;99504.22;5052032;28;20437;-83
2024/03/11 03:56:46;;;;;;;26.20;14.38;;;;;;;6.50;100.00;99504.75;5036079;28;20425;-84
2024/03/11 03:59:16;;;;;;;26.40;14.55;;;;;;;6.49;100.00;99511.28;5036074;28;20884;-84
2024/03/11 04:01:49;;;;;;;26.80;14.48;;;;;;;6.57;100.00;99502.56;5057428;28;20436;-83
2024/03/11 04:04:22;;;;;;;25.90;15.05;;;;;;;6.59;100.00;99500.38;5053264;28;20420;-82
2024/03/11 04:06:56;;;;;;;25.17;14.40;;;;;;;6.42;100.00;99506.19;5057569;28;20427;-84
2024/03/11 04:09:31;;;;;;;26.13;14.52;;;;;;;6.38;100.00;99497.03;5054847;28;20420;-84
2024/03/11 04:12:00;;;;;;;28.13;15.47;;;;;;;6.57;100.00;99489.03;5045010;28;20506;-83
2024/03/11 04:14:36;;;;;;;27.02;14.80;;;;;;;6.50;100.00;99488.53;5055782;28;20446;-84
2024/03/11 04:17:09;;;;;;;26.13;14.70;;;;;;;6.36;100.00;99484.88;5037280;28;20415;-84
2024/03/11 04:19:43;;;;;;;26.95;14.52;;;;;;;6.39;100.00;99484.31;5040703;28;20424;-83
2024/03/11 04:22:12;;;;;;;25.17;13.53;;;;;;;6.44;100.00;99485.06;5055712;28;20526;-84
2024/03/11 04:24:46;;;;;;;27.15;14.35;;;;;;;6.56;100.00;99492.00;5055603;28;21186;-83
2024/03/11 04:27:14;;;;;;;24.40;14.18;;;;;;;6.52;100.00;99499.88;5055043;28;22278;-84
2024/03/11 04:29:49;;;;;;;27.10;14.80;;;;;;;6.40;100.00;99507.53;5054600;28;20435;-84
2024/03/11 04:32:24;;;;;;;27.20;14.85;;;;;;;6.44;100.00;99514.00;5049789;28;21082;-84
2024/03/11 04:34:57;;;;;;;26.40;15.02;;;;;;;6.53;100.00;99517.72;5043412;28;20434;-83
2024/03/11 04:37:30;;;;;;;26.50;14.57;;;;;;;6.74;100.00;99509.44;5052844;28;20788;-85
2024/03/11 04:40:07;;;;;;;26.13;14.68;;;;;;;6.65;100.00;99520.06;5056247;28;20424;-84
2024/03/11 04:42:40;;;;;;;26.83;14.73;;;;;;;6.54;100.00;99522.03;5039992;28;20425;-83
2024/03/11 04:45:14;;;;;;;24.47;13.83;;;;;;;6.57;100.00;99523.38;5044819;28;20474;-82
2024/03/11 04:47:42;;;;;;;23.88;14.10;;;;;;;6.47;100.00;99525.03;5051142;28;20445;-83
2024/03/11 04:50:24;;;;;;;28.25;14.73;;;;;;;6.55;100.00;99520.16;5050218;28;20778;-83
2024/03/11 04:52:52;;;;;;;25.03;14.30;;;;;;;6.69;100.00;99515.69;5044849;28;20435;-82
2024/03/11 04:55:28;;;;;;;24.75;14.25;;;;;;;6.67;100.00;99522.47;5043261;28;20421;-84
2024/03/11 04:58:02;;;;;;;25.02;14.13;;;;;;;6.58;100.00;99527.69;5052980;28;20425;-84
2024/03/11 05:00:35;;;;;;;25.85;14.50;;;;;;;6.69;100.00;99520.31;5050968;28;20802;-84
2024/03/11 05:03:05;;;;;;;24.60;14.13;;;;;;;6.64;100.00;99527.38;5040966;28;20429;-83
2024/03/11 05:05:40;;;;;;;25.23;13.70;;;;;;;6.58;100.00;99524.97;5043894;28;20450;-84
2024/03/11 05:08:09;;;;;;;23.25;13.65;;;;;;;6.56;100.00;99524.44;5034679;28;20430;-83
2024/03/11 05:10:39;;;;;;;25.38;14.40;;;;;;;6.58;100.00;99527.69;5037110;28;20431;-82
2024/03/11 05:13:07;;;;;;;25.33;14.45;;;;;;;6.47;100.00;99525.03;5054461;28;20425;-83
2024/03/11 05:15:36;;;;;;;25.58;14.25;;;;;;;6.49;100.00;99518.56;5041784;28;20440;-85
2024/03/11 05:18:07;;;;;;;25.80;14.57;;;;;;;6.45;100.00;99524.53;5036726;28;20418;-84
2024/03/11 05:20:40;;;;;;;24.33;13.95;;;;;;;6.45;100.00;99510.22;5040694;28;20433;-85
2024/03/11 05:23:14;;;;;;;26.95;14.10;;;;;;;6.53;100.00;99516.91;5038946;28;20497;-84
2024/03/11 05:25:45;;;;;;;25.80;14.30;;;;;;;6.41;100.00;99518.06;5038626;28;20432;-84
2024/03/11 05:28:18;;;;;;;25.60;14.43;;;;;;;6.49;100.00;99526.66;5048300;28;20424;-83
2024/03/11 05:30:52;;;;;;;26.60;14.10;;;;;;;6.45;100.00;99540.75;5053271;28;20428;-83
2024/03/11 05:33:25;;;;;;;26.50;14.25;;;;;;;6.41;100.00;99533.50;5051418;28;20407;-84
2024/03/11 05:35:58;;;;;;;26.65;14.35;;;;;;;6.46;100.00;99538.84;5036503;28;20427;-84
2024/03/11 05:38:27;;;;;;;24.33;14.05;;;;;;;6.43;100.00;99540.19;5050488;28;20430;-83
2024/03/11 05:41:03;;;;;;;24.33;14.13;;;;;;;6.47;100.00;99541.25;5041363;28;20428;-82
2024/03/11 05:43:32;;;;;;;26.33;14.45;;;;;;;6.51;100.00;99548.81;5054353;28;20421;-83
2024/03/11 05:46:00;;;;;;;24.73;13.93;;;;;;;6.38;100.00;99553.78;5051926;28;20425;-83
2024/03/11 05:48:29;;;;;;;25.15;13.95;;;;;;;6.35;100.00;99554.31;5050223;28;20429;-85
2024/03/11 05:51:03;;;;;;;23.65;13.80;;;;;;;6.43;100.00;99550.22;5035986;28;20425;-83
2024/03/11 05:53:37;;;;;;;25.90;14.25;;;;;;;6.39;100.00;99549.16;5051896;28;20422;-85
2024/03/11 05:56:10;;;;;;;25.40;13.75;;;;;;;6.46;100.00;99547.78;5056561;28;21182;-84
2024/03/11 05:58:39;;;;;;;25.63;14.30;;;;;;;6.70;100.00;99559.75;5054440;28;20443;-84
2024/03/11 06:01:12;;;;;;;25.02;13.95;;;;;;;6.50;100.00;99560.72;5041609;28;21109;-85
2024/03/11 06:03:40;;;;;;;23.98;14.40;;;;;;;6.48;100.00;99552.91;5051973;28;20884;-83
2024/03/11 06:06:09;;;;;;;28.20;14.23;;;;;;;6.59;100.00;99559.84;5035622;28;20460;-83
2024/03/11 06:08:37;;;;;;;23.27;13.27;;;;;;;6.50;100.00;99561.50;5035926;28;20976;-84
2024/03/11 06:11:13;;;;;;;23.23;13.50;;;;;;;6.53;100.00;99560.97;5053177;28;20751;-85
2024/03/11 06:13:46;;;;;;;26.30;14.23;;;;;;;6.54;100.00;99557.16;5034124;28;20427;-85
2024/03/11 06:16:19;;;;;;;25.67;14.02;;;;;;;6.53;100.00;99563.69;5039941;28;20430;-84
2024/03/11 06:18:53;;;;;;;24.57;14.23;;;;;;;6.44;100.00;99574.25;5032807;28;20426;-85
2024/03/11 06:21:21;;;;;;;25.10;14.02;;;;;;;6.27;100.00;99566.53;5041198;28;20432;-83
2024/03/11 06:23:49;;;;;;;25.30;14.00;;;;;;;6.44;100.00;99576.16;5034383;28;20895;-84
2024/03/11 06:26:24;;;;;;;23.65;13.77;;;;;;;6.51;100.00;99567.75;5035575;28;20423;-85
2024/03/11 06:29:00;;;;;;;24.48;14.02;;;;;;;6.41;100.00;99569.41;5052741;28;20429;-84
2024/03/11 06:31:33;;;;;;;25.33;14.98;;;;;;;6.45;100.00;99567.78;5052375;28;20418;-83
2024/03/11 06:34:02;;;;;;;25.88;14.23;;;;;;;6.54;100.00;99569.88;5039263;28;20863;-82
2024/03/11 06:36:36;;;;;;;25.80;14.48;;;;;;;6.47;100.00;99571.00;5039961;28;20436;-84
2024/03/11 06:39:09;;;;;;;22.65;13.98;;;;;;;6.52;100.00;99558.53;5053277;28;20423;-85
2024/03/11 06:41:39;;;;;;;25.13;14.45;;;;;;;6.41;100.00;99560.50;5054551;28;20429;-83
2024/03/11 06:44:13;;;;;;;24.63;13.85;;;;;;;6.57;100.00;99562.03;5052050;28;20425;-84
2024/03/11 06:46:41;;;;;;;26.35;14.18;;;;;;;6.42;100.00;99562.09;5037188;28;20990;-83
2024/03/11 06:49:11;;;;;;;25.50;14.30;;;;;;;6.46;100.00;99566.69;5039952;28;20432;-84
2024/03/11 06:51:39;;;;;;;26.08;14.80;;;;;;;6.66;100.00;99574.94;5050561;28;20433;-84
2024/03/11 06:54:08;;;;;;;23.63;13.38;;;;;;;6.58;100.00;99576.34;5051850;28;20420;-84
2024/03/11 06:56:42;;;;;;;24.45;13.98;;;;;;;6.59;100.00;99572.56;5040589;28;20425;-84
2024/03/11 06:59:15;;;;;;;23.80;13.67;;;;;;;6.52;100.00;99570.16;5057979;28;20506;-86
2024/03/11 07:01:44;;;;;;;25.38;13.85;;;;;;;6.64;100.00;99575.22;5046876;28;20435;-85
2024/03/11 07:04:19;;;;;;;24.17;13.68;;;;;;;6.65;100.00;99582.25;5048829;28;20426;-84
2024/03/11 07:06:48;;;;;;;24.52;14.02;;;;;;;6.57;100.00;99582.84;5054036;28;20424;-84
2024/03/11 07:09:21;;;;;;;24.40;13.55;;;;;;;6.48;100.00;99577.22;5058942;28;20417;-84
2024/03/11 07:11:51;;;;;;;24.90;13.50;;;;;;;6.57;100.00;99582.84;5046385;28;20435;-85
2024/03/11 07:14:20;;;;;;;25.48;13.70;;;;;;;6.68;100.00;99580.88;5051666;28;20421;-84
2024/03/11 07:16:48;;;;;;;24.33;13.80;;;;;;;6.59;100.00;99570.66;5047824;28;20436;-85
2024/03/11 07:19:16;;;;;;;23.95;14.13;;;;;;;6.46;100.00;99564.00;5043530;28;20423;-86
2024/03/11 07:21:45;;;;;;;24.23;13.57;;;;;;;6.68;100.00;99562.75;5040752;28;20421;-86
2024/03/11 07:24:19;;;;;;;24.83;13.10;;;;;;;6.72;100.00;99576.53;5059498;28;20427;-84
2024/03/11 07:26:47;;;;;;;23.60;13.80;;;;;;;6.71;100.00;99573.03;5036061;28;20431;-84
2024/03/11 07:29:22;;;;;;;25.75;14.00;;;;;;;6.64;100.00;99573.34;5037810;28;20421;-85
2024/03/11 07:31:53;;;;;;;24.92;13.70;;;;;;;6.74;100.00;99583.28;5027667;28;20426;-81
2024/03/11 07:34:26;;;;;;;26.00;13.93;;;;;;;6.70;100.00;99586.78;5038523;28;20435;-82
2024/03/11 07:36:55;;;;;;;23.43;13.50;;;;;;;6.75;100.00;99589.47;5030400;28;20445;-84
2024/03/11 07:39:25;;;;;;;24.90;14.15;;;;;;;6.77;100.00;99588.09;5027257;28;21183;-85
2024/03/11 07:41:59;;;;;;;24.52;13.68;;;;;;;6.96;100.00;99599.06;5024611;28;20435;-84
2024/03/11 07:44:33;;;;;;;24.47;13.13;;;;;;;6.91;100.00;99599.09;5029156;28;20530;-85
2024/03/11 07:47:02;;;;;;;23.33;13.43;;;;;;;7.06;100.00;99591.97;5043686;28;20419;-83
2024/03/11 07:49:30;;;;;;;25.75;14.45;;;;;;;7.11;100.00;99592.72;5021797;28;20934;-84
2024/03/11 07:51:59;;;;;;;24.80;13.20;;;;;;;7.19;100.00;99591.28;5046558;28;20427;-82
2024/03/11 07:54:33;;;;;;;29.08;14.43;;;;;;;7.22;100.00;99596.16;5032586;28;20431;-82
2024/03/11 07:57:01;;;;;;;26.95;15.43;;;;;;;7.23;100.00;99602.38;5019360;28;20431;-85
2024/03/11 07:59:30;;;;;;;21.63;12.65;;;;;;;7.31;100.00;99594.44;5012723;28;20439;-83
2024/03/11 08:02:00;;;;;;;24.90;13.82;;;;;;;7.22;100.00;99598.03;5001777;28;20451;-84
2024/03/11 08:04:35;;;;;;;24.30;13.57;;;;;;;7.27;100.00;99608.81;5017878;28;20436;-82
2024/03/11 08:07:12;;;;;;;23.60;13.20;;;;;;;7.29;100.00;99604.75;5021149;28;20436;-84
2024/03/11 08:09:41;;;;;;;23.20;13.63;;;;;;;7.39;100.00;99616.56;5045648;28;20437;-82
2024/03/11 08:12:11;;;;;;;24.50;13.77;;;;;;;7.40;100.00;99610.88;5044489;28;20415;-86
2024/03/11 08:14:45;;;;;;;23.67;13.25;;;;;;;7.24;100.00;99615.63;5032653;28;20439;-83
2024/03/11 08:17:23;;;;;;;22.98;13.30;;;;;;;7.40;100.00;99627.13;5025475;28;20416;-83
2024/03/11 08:19:56;;;;;;;23.23;13.30;;;;;;;7.54;100.00;99619.16;5028040;28;20530;-83
2024/03/11 08:22:32;;;;;;;22.50;13.23;;;;;;;7.37;100.00;99624.16;5019179;28;20442;-83
2024/03/11 08:25:07;;;;;;;25.15;13.30;;;;;;;7.35;100.00;99629.88;5041561;28;20482;-82
2024/03/11 08:27:40;;;;;;;24.80;13.20;;;;;;;7.44;100.00;99630.06;5039350;28;20420;-83
2024/03/11 08:30:11;;;;;;;22.57;12.93;;;;;;;7.45;100.00;99632.47;5027519;28;20423;-83
2024/03/11 08:32:41;;;;;;;23.37;12.90;;;;;;;7.39;100.00;99632.78;4998483;28;20443;-83
2024/03/11 08:35:14;;;;;;;22.93;13.73;;;;;;;7.40;100.00;99635.25;5013690;28;20439;-82
2024/03/11 08:37:43;;;;;;;25.55;14.50;;;;;;;7.48;100.00;99640.03;5025915;28;20427;-82
2024/03/11 08:40:19;;;;;;;25.00;13.93;;;;;;;7.41;100.00;99644.16;5038441;28;20454;-82
2024/03/11 08:42:53;;;;;;;22.30;13.13;;;;;;;7.35;100.00;99654.22;5042379;28;20423;-81
2024/03/11 08:45:31;;;;;;;24.20;13.65;;;;;;;7.30;100.00;99655.06;5041175;28;20434;-82
2024/03/11 08:48:07;;;;;;;26.13;13.68;;;;;;;7.30;100.00;99656.97;5025473;28;20432;-82
2024/03/11 08:50:41;;;;;;;23.27;13.45;;;;;;;7.30;100.00;99657.75;5060303;28;20424;-82
2024/03/11 08:53:09;;;;;;;23.05;14.10;;;;;;;7.38;100.00;99653.66;5063969;28;20430;-86
2024/03/11 08:55:43;;;;;;;24.93;13.73;;;;;;;7.27;100.00;99652.94;5057674;28;20444;-84
2024/03/11 08:58:19;;;;;;;23.55;13.88;;;;;;;7.21;100.00;99658.66;5057127;28;20441;-85
2024/03/11 09:00:53;;;;;;;23.98;13.48;;;;;;;7.41;100.00;99655.78;5056965;28;20430;-82
2024/03/11 09:03:23;;;;;;;23.58;14.00;;;;;;;7.45;100.00;99656.84;5067002;28;20418;-82
2024/03/11 09:05:59;;;;;;;25.90;14.35;;;;;;;7.43;100.00;99658.22;5069565;28;20877;-83
2024/03/11 09:08:33;;;;;;;24.40;13.63;;;;;;;7.53;100.00;99673.59;5066830;28;20425;-85
2024/03/11 09:11:06;;;;;;;25.17;14.20;;;;;;;7.58;100.00;99663.50;5069326;28;20424;-83
2024/03/11 09:13:40;;;;;;;27.60;14.38;;;;;;;7.44;100.00;99666.06;5057575;28;20922;-82
2024/03/11 09:16:13;;;;;;;23.73;14.05;;;;;;;7.51;100.00;99673.84;5069633;28;20420;-84
2024/03/11 09:18:43;;;;;;;24.52;14.00;;;;;;;7.46;100.00;99668.50;5054017;28;20429;-85
2024/03/11 09:21:21;;;;;;;25.42;14.48;;;;;;;7.55;100.00;99666.75;5057721;28;20427;-84
2024/03/11 09:23:54;;;;;;;24.35;14.55;;;;;;;7.77;100.00;99670.91;5067686;28;20431;-84
2024/03/11 09:26:29;;;;;;;24.80;14.77;;;;;;;7.62;100.00;99666.44;5066637;28;20420;-84
2024/03/11 09:28:57;;;;;;;25.20;14.13;;;;;;;7.77;100.00;99668.19;5065730;28;20417;-85
2024/03/11 09:31:26;;;;;;;24.15;14.35;;;;;;;7.81;100.00;99667.34;5053197;28;20416;-86
2024/03/11 09:33:55;;;;;;;24.98;14.23;;;;;;;7.93;100.00;99674.28;5069807;28;20413;-82
2024/03/11 09:36:24;;;;;;;26.98;14.63;;;;;;;7.87;100.00;99668.13;5069344;28;20419;-84
2024/03/11 09:38:52;;;;;;;25.80;14.90;;;;;;;8.02;100.00;99682.59;5053209;28;20424;-84
2024/03/11 09:41:21;;;;;;;25.00;15.00;;;;;;;7.95;100.00;99678.28;5054271;28;20434;-82
2024/03/11 09:43:54;;;;;;;26.20;15.10;;;;;;;7.91;100.00;99684.59;5053438;28;20478;-85
2024/03/11 09:46:28;;;;;;;26.38;15.13;;;;;;;8.07;100.00;99685.25;5054193;28;20426;-84
2024/03/11 09:48:58;;;;;;;27.38;15.30;;;;;;;8.15;100.00;99684.63;5049635;28;20426;-84
2024/03/11 09:51:32;;;;;;;28.20;15.68;;;;;;;8.21;100.00;99694.28;5045871;28;20955;-84
2024/03/11 09:54:05;;;;;;;26.40;15.27;;;;;;;8.41;100.00;99681.59;5053324;28;20431;-84
2024/03/11 09:56:35;;;;;;;27.73;16.13;;;;;;;8.37;100.00;99686.81;5047160;28;20422;-83
2024/03/11 09:59:09;;;;;;;25.80;15.65;;;;;;;8.47;100.00;99685.91;5046129;28;20421;-84
2024/03/11 10:01:42;;;;;;;27.33;15.68;;;;;;;8.46;100.00;99676.16;5056048;28;20888;-84
2024/03/11 10:04:20;;;;;;;26.90;16.00;;;;;;;8.40;100.00;99678.09;5051949;28;20419;-84
2024/03/11 10:06:59;;;;;;;26.40;15.88;;;;;;;8.42;100.00;99688.63;5052072;28;20799;-82
2024/03/11 10:09:31;;;;;;;28.25;16.52;;;;;;;8.51;100.00;99684.22;5063552;28;20727;-81
2024/03/11 10:12:02;;;;;;;29.05;16.48;;;;;;;8.56;100.00;99683.34;5054850;28;20915;-83
2024/03/11 10:14:38;;;;;;;26.60;15.50;;;;;;;8.50;100.00;99679.88;5061397;28;20437;-84
2024/03/11 10:17:21;;;;;;;27.67;16.17;;;;;;;8.49;100.00;99680.97;5059988;28;20427;-86
2024/03/11 10:19:54;;;;;;;27.77;17.13;;;;;;;8.59;100.00;99680.03;5024413;28;20431;-82
2024/03/11 10:22:29;;;;;;;26.40;16.95;;;;;;;8.49;100.00;99683.69;5034485;28;21158;-83
2024/03/11 10:24:58;;;;;;;26.85;16.55;;;;;;;8.35;100.00;99694.41;5028887;28;20438;-80
2024/03/11 10:27:33;;;;;;;31.45;17.50;;;;;;;8.19;100.00;99693.78;5054684;28;20724;-81
2024/03/11 10:30:19;;;;;;;28.20;16.80;;;;;;;8.28;100.00;99699.38;5028246;28;20411;-82
2024/03/11 10:32:52;;;;;;;30.07;17.13;;;;;;;8.32;100.00;99705.84;5038881;28;20412;-83
2024/03/11 10:35:33;;;;;;;28.50;17.05;;;;;;;8.23;100.00;99702.97;5037180;28;21046;-82
2024/03/11 10:38:12;;;;;;;27.33;17.60;;;;;;;8.20;100.00;99714.34;5025932;28;20512;-82
2024/03/11 10:40:45;;;;;;;31.98;18.42;;;;;;;8.19;100.00;99715.47;5050047;28;20419;-82
2024/03/11 10:43:21;;;;;;;30.03;17.60;;;;;;;8.15;100.00;99714.44;5024665;28;20436;-81
2024/03/11 10:45:58;;;;;;;30.33;18.20;;;;;;;8.13;100.00;99711.19;5035576;28;20424;-83
2024/03/11 10:48:32;;;;;;;32.35;18.63;;;;;;;8.15;100.00;99711.72;5039211;28;21165;-81
2024/03/11 10:51:02;;;;;;;30.15;17.50;;;;;;;8.06;100.00;99716.94;5047301;28;20440;-83
2024/03/11 10:53:31;;;;;;;30.85;18.25;;;;;;;8.12;100.00;99718.50;5047150;28;20431;-82
2024/03/11 10:56:05;;;;;;;30.77;17.88;;;;;;;8.13;100.00;99722.84;5042709;28;20455;-83
2024/03/11 10:58:35;;;;;;;33.05;18.75;;;;;;;8.22;100.00;99725.72;5018748;28;20420;-82
2024/03/11 11:01:08;;;;;;;29.92;17.70;;;;;;;8.30;100.00;99732.41;5028518;28;20430;-85
2024/03/11 11:03:44;;;;;;;31.27;17.55;;;;;;;8.38;100.00;99741.81;5022945;28;20416;-80
2024/03/11 11:06:15;;;;;;;33.58;17.92;;;;;;;8.28;100.00;99731.91;5026755;28;20450;-82
2024/03/11 11:08:50;;;;;;;30.10;18.30;;;;;;;8.12;100.00;99742.91;5030066;28;20420;-82
2024/03/11 11:11:19;;;;;;;33.28;19.13;;;;;;;8.07;100.00;99740.25;5045932;28;20516;-83
2024/03/11 11:13:54;;;;;;;31.38;19.20;;;;;;;8.13;100.00;99744.53;5040527;28;20425;-80
2024/03/11 11:16:25;;;;;;;31.13;17.80;;;;;;;8.14;100.00;99748.84;5038457;28;20485;-81
2024/03/11 11:18:56;;;;;;;33.63;18.93;;;;;;;8.25;100.00;99746.03;5033917;28;20509;-81
2024/03/11 11:21:29;;;;;;;32.20;19.25;;;;;;;8.27;100.00;99747.38;5042450;28;20408;-82
2024/03/11 11:24:26;;;;;;;33.50;18.27;;;;;;;8.24;100.00;99747.91;5037659;28;20419;-81
2024/03/11 11:26:56;;;;;;;31.92;19.38;;;;;;;8.13;100.00;99751.84;5031687;28;20423;-81
2024/03/11 11:29:30;;;;;;;35.72;19.92;;;;;;;8.21;100.00;99748.50;5042115;28;20427;-80
2024/03/11 11:32:05;;;;;;;35.65;19.48;;;;;;;8.20;100.00;99741.47;5041973;28;20435;-81
2024/03/11 11:34:50;;;;;;;32.65;19.38;;;;;;;8.29;100.00;99750.59;5029331;28;21192;-83
2024/03/11 11:37:38;;;;;;;33.00;20.33;;;;;;;8.42;100.00;99749.06;5049853;28;20423;-79
2024/03/11 11:40:31;;;;;;;31.00;19.23;;;;;;;8.43;100.00;99750.69;5039910;28;20426;-83